sensor_id;sensor_type;location;lat;lon;timestamp;pressure;altitude;pressure_sealevel;temperature;humidity
42125;BME280;27787;44.594;11.046;2023-01-23T00:00:45;101439.25;;;4.62;87.11
42125;BME280;27787;44.594;11.046;2023-01-23T00:03:30;101433.06;;;4.60;87.77
42125;BME280;27787;44.594;11.046;2023-01-23T00:06:15;101427.00;;;4.61;88.17
42125;BME280;27787;44.594;11.046;2023-01-23T00:09:00;101427.84;;;4.60;88.69
42125;BME280;27787;44.594;11.046;2023-01-23T00:11:44;101439.25;;;4.62;88.85
42125;BME280;27787;44.594;11.046;2023-01-23T00:14:28;101440.00;;;4.59;89.15
42125;BME280;27787;44.594;11.046;2023-01-23T00:17:12;101437.34;;;4.58;89.80
42125;BME280;27787;44.594;11.046;2023-01-23T00:19:56;101437.47;;;4.61;90.42
42125;BME280;27787;44.594;11.046;2023-01-23T00:22:40;101437.69;;;4.67;90.77
42125;BME280;27787;44.594;11.046;2023-01-23T00:25:25;101437.16;;;4.74;91.03
42125;BME280;27787;44.594;11.046;2023-01-23T00:28:09;101426.19;;;4.83;89.70
42125;BME280;27787;44.594;11.046;2023-01-23T00:31:10;101418.41;;;4.84;89.57
42125;BME280;27787;44.594;11.046;2023-01-23T00:33:58;101415.72;;;4.83;89.79
42125;BME280;27787;44.594;11.046;2023-01-23T00:36:43;101400.81;;;4.82;89.74
42125;BME280;27787;44.594;11.046;2023-01-23T00:39:28;101402.63;;;4.83;90.08
42125;BME280;27787;44.594;11.046;2023-01-23T00:42:12;101401.47;;;4.76;90.68
42125;BME280;27787;44.594;11.046;2023-01-23T00:44:57;101403.78;;;4.68;91.22
42125;BME280;27787;44.594;11.046;2023-01-23T00:47:41;101407.88;;;4.62;92.23
42125;BME280;27787;44.594;11.046;2023-01-23T00:50:25;101412.84;;;4.56;93.21
42125;BME280;27787;44.594;11.046;2023-01-23T00:53:10;101407.53;;;4.54;93.50
42125;BME280;27787;44.594;11.046;2023-01-23T00:55:55;101401.28;;;4.51;93.39
42125;BME280;27787;44.594;11.046;2023-01-23T00:58:40;101390.72;;;4.48;93.57
42125;BME280;27787;44.594;11.046;2023-01-23T01:01:25;101399.38;;;4.47;93.71
42125;BME280;27787;44.594;11.046;2023-01-23T01:04:10;101410.63;;;4.44;93.74
42125;BME280;27787;44.594;11.046;2023-01-23T01:06:55;101415.06;;;4.47;93.57
42125;BME280;27787;44.594;11.046;2023-01-23T01:09:40;101417.56;;;4.43;94.40
42125;BME280;27787;44.594;11.046;2023-01-23T01:12:24;101423.69;;;4.44;94.41
42125;BME280;27787;44.594;11.046;2023-01-23T01:15:09;101422.78;;;4.43;94.20
42125;BME280;27787;44.594;11.046;2023-01-23T01:17:56;101429.81;;;4.44;94.17
42125;BME280;27787;44.594;11.046;2023-01-23T01:20:41;101417.75;;;4.48;93.60
42125;BME280;27787;44.594;11.046;2023-01-23T01:23:26;101413.59;;;4.53;93.33
42125;BME280;27787;44.594;11.046;2023-01-23T01:26:10;101417.16;;;4.55;92.65
42125;BME280;27787;44.594;11.046;2023-01-23T01:28:55;101416.97;;;4.51;92.79
42125;BME280;27787;44.594;11.046;2023-01-23T01:31:40;101405.44;;;4.46;93.16
42125;BME280;27787;44.594;11.046;2023-01-23T01:34:24;101412.34;;;4.43;93.55
42125;BME280;27787;44.594;11.046;2023-01-23T01:37:08;101413.13;;;4.42;93.42
42125;BME280;27787;44.594;11.046;2023-01-23T01:39:52;101411.34;;;4.41;93.70
42125;BME280;27787;44.594;11.046;2023-01-23T01:42:46;101400.00;;;4.41;93.37
42125;BME280;27787;44.594;11.046;2023-01-23T01:51:58;101394.66;;;4.38;92.47
42125;BME280;27787;44.594;11.046;2023-01-23T01:54:53;101390.25;;;4.37;92.87
42125;BME280;27787;44.594;11.046;2023-01-23T01:57:42;101379.03;;;4.39;92.36
42125;BME280;27787;44.594;11.046;2023-01-23T02:00:27;101365.97;;;4.39;92.59
42125;BME280;27787;44.594;11.046;2023-01-23T02:03:12;101370.41;;;4.42;92.14
42125;BME280;27787;44.594;11.046;2023-01-23T02:05:58;101373.13;;;4.43;91.13
42125;BME280;27787;44.594;11.046;2023-01-23T02:08:53;101377.66;;;4.48;89.91
42125;BME280;27787;44.594;11.046;2023-01-23T02:11:41;101362.78;;;4.47;90.72
42125;BME280;27787;44.594;11.046;2023-01-23T02:14:26;101364.69;;;4.51;90.62
42125;BME280;27787;44.594;11.046;2023-01-23T02:17:11;101368.16;;;4.50;90.72
42125;BME280;27787;44.594;11.046;2023-01-23T02:26:00;101360.06;;;4.43;92.46
42125;BME280;27787;44.594;11.046;2023-01-23T02:28:50;101358.06;;;4.38;93.12
42125;BME280;27787;44.594;11.046;2023-01-23T02:31:41;101352.78;;;4.36;93.65
42125;BME280;27787;44.594;11.046;2023-01-23T02:34:27;101358.19;;;4.41;93.63
42125;BME280;27787;44.594;11.046;2023-01-23T02:37:18;101341.81;;;4.45;93.09
42125;BME280;27787;44.594;11.046;2023-01-23T02:40:04;101337.66;;;4.50;92.65
42125;BME280;27787;44.594;11.046;2023-01-23T02:42:51;101330.59;;;4.48;92.87
42125;BME280;27787;44.594;11.046;2023-01-23T02:45:38;101337.44;;;4.44;93.64
42125;BME280;27787;44.594;11.046;2023-01-23T02:48:23;101334.09;;;4.48;93.18
42125;BME280;27787;44.594;11.046;2023-01-23T02:51:08;101321.16;;;4.51;93.09
42125;BME280;27787;44.594;11.046;2023-01-23T02:53:52;101323.59;;;4.47;93.66
42125;BME280;27787;44.594;11.046;2023-01-23T02:56:36;101314.84;;;4.46;93.58
42125;BME280;27787;44.594;11.046;2023-01-23T02:59:21;101315.69;;;4.45;93.90
42125;BME280;27787;44.594;11.046;2023-01-23T03:02:25;101307.00;;;4.46;94.14
42125;BME280;27787;44.594;11.046;2023-01-23T03:05:10;101309.56;;;4.44;94.24
42125;BME280;27787;44.594;11.046;2023-01-23T03:07:54;101297.19;;;4.40;94.49
42125;BME280;27787;44.594;11.046;2023-01-23T03:10:40;101298.78;;;4.37;94.73
42125;BME280;27787;44.594;11.046;2023-01-23T03:13:24;101294.06;;;4.28;95.40
42125;BME280;27787;44.594;11.046;2023-01-23T03:16:10;101289.00;;;4.31;95.77
42125;BME280;27787;44.594;11.046;2023-01-23T03:18:55;101296.13;;;4.35;95.31
42125;BME280;27787;44.594;11.046;2023-01-23T03:21:40;101277.09;;;4.39;94.76
42125;BME280;27787;44.594;11.046;2023-01-23T03:24:25;101284.09;;;4.40;93.97
42125;BME280;27787;44.594;11.046;2023-01-23T03:27:09;101290.28;;;4.42;92.89
42125;BME280;27787;44.594;11.046;2023-01-23T03:29:58;101288.38;;;4.38;93.34
42125;BME280;27787;44.594;11.046;2023-01-23T03:32:59;101285.72;;;4.37;93.83
42125;BME280;27787;44.594;11.046;2023-01-23T03:35:44;101294.34;;;4.34;93.52
42125;BME280;27787;44.594;11.046;2023-01-23T03:38:28;101294.16;;;4.30;92.37
42125;BME280;27787;44.594;11.046;2023-01-23T03:41:12;101287.28;;;4.32;93.40
42125;BME280;27787;44.594;11.046;2023-01-23T03:44:10;101305.63;;;4.33;92.64
42125;BME280;27787;44.594;11.046;2023-01-23T03:46:54;101294.22;;;4.31;94.14
42125;BME280;27787;44.594;11.046;2023-01-23T03:49:40;101300.38;;;4.33;93.94
42125;BME280;27787;44.594;11.046;2023-01-23T03:52:25;101291.59;;;4.31;93.47
42125;BME280;27787;44.594;11.046;2023-01-23T03:55:10;101319.50;;;4.32;93.30
42125;BME280;27787;44.594;11.046;2023-01-23T03:57:55;101295.28;;;4.36;93.48
42125;BME280;27787;44.594;11.046;2023-01-23T04:00:46;101304.78;;;4.34;94.35
42125;BME280;27787;44.594;11.046;2023-01-23T04:03:31;101310.84;;;4.33;94.38
42125;BME280;27787;44.594;11.046;2023-01-23T04:06:16;101302.88;;;4.30;95.38
42125;BME280;27787;44.594;11.046;2023-01-23T04:09:04;101310.63;;;4.29;96.01
42125;BME280;27787;44.594;11.046;2023-01-23T04:11:49;101297.38;;;4.24;96.02
42125;BME280;27787;44.594;11.046;2023-01-23T04:14:36;101290.06;;;4.15;97.19
42125;BME280;27787;44.594;11.046;2023-01-23T04:17:20;101300.59;;;4.17;97.31
42125;BME280;27787;44.594;11.046;2023-01-23T04:20:05;101314.28;;;4.11;97.42
42125;BME280;27787;44.594;11.046;2023-01-23T04:22:49;101306.13;;;4.04;97.48
42125;BME280;27787;44.594;11.046;2023-01-23T04:25:34;101292.69;;;3.95;99.33
42125;BME280;27787;44.594;11.046;2023-01-23T04:28:21;101290.69;;;3.89;100.00
42125;BME280;27787;44.594;11.046;2023-01-23T04:31:07;101279.28;;;3.87;100.00
42125;BME280;27787;44.594;11.046;2023-01-23T04:33:52;101276.38;;;3.79;99.80
42125;BME280;27787;44.594;11.046;2023-01-23T04:36:39;101280.47;;;3.74;100.00
42125;BME280;27787;44.594;11.046;2023-01-23T04:39:23;101275.84;;;3.67;100.00
42125;BME280;27787;44.594;11.046;2023-01-23T04:42:08;101261.19;;;3.51;100.00
42125;BME280;27787;44.594;11.046;2023-01-23T04:45:07;101255.72;;;3.45;100.00
42125;BME280;27787;44.594;11.046;2023-01-23T04:48:11;101243.22;;;3.38;100.00
42125;BME280;27787;44.594;11.046;2023-01-23T04:50:55;101239.53;;;3.33;100.00
42125;BME280;27787;44.594;11.046;2023-01-23T04:53:40;101243.84;;;3.33;100.00
42125;BME280;27787;44.594;11.046;2023-01-23T04:56:25;101248.19;;;3.32;100.00
42125;BME280;27787;44.594;11.046;2023-01-23T04:59:12;101251.31;;;3.25;100.00
42125;BME280;27787;44.594;11.046;2023-01-23T05:01:57;101252.16;;;3.24;100.00
42125;BME280;27787;44.594;11.046;2023-01-23T05:04:42;101274.69;;;3.22;100.00
42125;BME280;27787;44.594;11.046;2023-01-23T05:07:27;101248.47;;;3.19;100.00
42125;BME280;27787;44.594;11.046;2023-01-23T05:10:24;101238.72;;;3.15;100.00
42125;BME280;27787;44.594;11.046;2023-01-23T05:13:09;101248.28;;;3.14;100.00
42125;BME280;27787;44.594;11.046;2023-01-23T05:15:53;101245.66;;;3.14;100.00
42125;BME280;27787;44.594;11.046;2023-01-23T05:18:38;101230.84;;;3.13;100.00
42125;BME280;27787;44.594;11.046;2023-01-23T05:21:23;101233.22;;;3.09;100.00
42125;BME280;27787;44.594;11.046;2023-01-23T05:24:07;101234.88;;;3.07;100.00
42125;BME280;27787;44.594;11.046;2023-01-23T05:26:55;101231.19;;;3.02;100.00
42125;BME280;27787;44.594;11.046;2023-01-23T05:29:41;101241.25;;;2.94;100.00
42125;BME280;27787;44.594;11.046;2023-01-23T05:32:31;101212.44;;;2.91;100.00
42125;BME280;27787;44.594;11.046;2023-01-23T05:35:29;101208.94;;;2.90;100.00
42125;BME280;27787;44.594;11.046;2023-01-23T05:38:13;101212.31;;;2.88;100.00
42125;BME280;27787;44.594;11.046;2023-01-23T05:41:01;101200.00;;;2.85;100.00
42125;BME280;27787;44.594;11.046;2023-01-23T05:44:05;101192.03;;;2.82;100.00
42125;BME280;27787;44.594;11.046;2023-01-23T05:47:01;101185.94;;;2.82;100.00
42125;BME280;27787;44.594;11.046;2023-01-23T05:49:46;101186.75;;;2.81;100.00
42125;BME280;27787;44.594;11.046;2023-01-23T05:52:30;101181.41;;;2.78;100.00
42125;BME280;27787;44.594;11.046;2023-01-23T05:55:15;101208.25;;;2.75;100.00
42125;BME280;27787;44.594;11.046;2023-01-23T05:58:03;101205.34;;;2.69;100.00
42125;BME280;27787;44.594;11.046;2023-01-23T06:01:19;101207.75;;;2.64;100.00
42125;BME280;27787;44.594;11.046;2023-01-23T06:04:21;101203.50;;;2.66;100.00
42125;BME280;27787;44.594;11.046;2023-01-23T06:07:18;101196.63;;;2.69;100.00
42125;BME280;27787;44.594;11.046;2023-01-23T06:10:04;101194.84;;;2.67;100.00
42125;BME280;27787;44.594;11.046;2023-01-23T06:12:49;101204.31;;;2.65;100.00
42125;BME280;27787;44.594;11.046;2023-01-23T06:15:33;101207.88;;;2.67;100.00
42125;BME280;27787;44.594;11.046;2023-01-23T06:18:23;101196.69;;;2.70;100.00
42125;BME280;27787;44.594;11.046;2023-01-23T06:21:08;101194.31;;;2.75;100.00
42125;BME280;27787;44.594;11.046;2023-01-23T06:23:54;101202.72;;;2.69;100.00
42125;BME280;27787;44.594;11.046;2023-01-23T06:26:39;101199.78;;;2.61;100.00
42125;BME280;27787;44.594;11.046;2023-01-23T06:29:23;101190.91;;;2.58;100.00
42125;BME280;27787;44.594;11.046;2023-01-23T06:32:09;101192.44;;;2.53;100.00
42125;BME280;27787;44.594;11.046;2023-01-23T06:34:54;101193.13;;;2.49;100.00
42125;BME280;27787;44.594;11.046;2023-01-23T06:37:38;101189.53;;;2.47;100.00
42125;BME280;27787;44.594;11.046;2023-01-23T06:40:23;101196.44;;;2.46;100.00
42125;BME280;27787;44.594;11.046;2023-01-23T06:43:28;101196.75;;;2.52;100.00
42125;BME280;27787;44.594;11.046;2023-01-23T06:46:13;101200.38;;;2.56;100.00
42125;BME280;27787;44.594;11.046;2023-01-23T06:48:57;101182.97;;;2.55;100.00
42125;BME280;27787;44.594;11.046;2023-01-23T06:51:42;101192.63;;;2.57;100.00
42125;BME280;27787;44.594;11.046;2023-01-23T06:54:28;101173.38;;;2.54;100.00
42125;BME280;27787;44.594;11.046;2023-01-23T06:57:17;101189.88;;;2.54;100.00
42125;BME280;27787;44.594;11.046;2023-01-23T07:00:05;101180.16;;;2.50;100.00
42125;BME280;27787;44.594;11.046;2023-01-23T07:02:50;101165.28;;;2.48;100.00
42125;BME280;27787;44.594;11.046;2023-01-23T07:05:36;101148.81;;;2.49;100.00
42125;BME280;27787;44.594;11.046;2023-01-23T07:08:23;101172.03;;;2.44;100.00
42125;BME280;27787;44.594;11.046;2023-01-23T07:11:08;101170.00;;;2.37;100.00
42125;BME280;27787;44.594;11.046;2023-01-23T07:13:52;101161.34;;;2.38;100.00
42125;BME280;27787;44.594;11.046;2023-01-23T07:16:37;101178.06;;;2.43;100.00
42125;BME280;27787;44.594;11.046;2023-01-23T07:19:22;101177.72;;;2.35;100.00
42125;BME280;27787;44.594;11.046;2023-01-23T07:22:06;101159.19;;;2.29;100.00
42125;BME280;27787;44.594;11.046;2023-01-23T07:24:50;101165.84;;;2.23;100.00
42125;BME280;27787;44.594;11.046;2023-01-23T07:27:34;101162.25;;;2.21;100.00
42125;BME280;27787;44.594;11.046;2023-01-23T07:30:19;101161.34;;;2.20;100.00
42125;BME280;27787;44.594;11.046;2023-01-23T07:33:04;101163.00;;;2.18;100.00
42125;BME280;27787;44.594;11.046;2023-01-23T07:35:48;101160.34;;;2.17;100.00
42125;BME280;27787;44.594;11.046;2023-01-23T07:38:33;101159.88;;;2.07;100.00
42125;BME280;27787;44.594;11.046;2023-01-23T07:41:17;101152.91;;;2.06;100.00
42125;BME280;27787;44.594;11.046;2023-01-23T07:44:01;101167.69;;;2.07;100.00
42125;BME280;27787;44.594;11.046;2023-01-23T07:46:46;101187.50;;;2.04;100.00
42125;BME280;27787;44.594;11.046;2023-01-23T07:49:30;101164.97;;;2.04;100.00
42125;BME280;27787;44.594;11.046;2023-01-23T07:52:15;101156.31;;;2.05;100.00
42125;BME280;27787;44.594;11.046;2023-01-23T07:54:59;101152.31;;;2.12;100.00
42125;BME280;27787;44.594;11.046;2023-01-23T07:57:43;101160.34;;;2.17;100.00
42125;BME280;27787;44.594;11.046;2023-01-23T08:00:27;101143.81;;;2.16;100.00
42125;BME280;27787;44.594;11.046;2023-01-23T08:03:12;101135.19;;;2.17;100.00
42125;BME280;27787;44.594;11.046;2023-01-23T08:05:57;101150.00;;;2.18;100.00
42125;BME280;27787;44.594;11.046;2023-01-23T08:08:42;101145.47;;;2.14;100.00
42125;BME280;27787;44.594;11.046;2023-01-23T08:11:27;101162.94;;;2.17;100.00
42125;BME280;27787;44.594;11.046;2023-01-23T08:14:11;101155.13;;;2.17;100.00
42125;BME280;27787;44.594;11.046;2023-01-23T10:00:14;101170.50;;;2.67;100.00
42125;BME280;27787;44.594;11.046;2023-01-23T10:03:03;101153.22;;;2.69;100.00
42125;BME280;27787;44.594;11.046;2023-01-23T10:06:21;101166.88;;;2.63;100.00
42125;BME280;27787;44.594;11.046;2023-01-23T10:13:00;101148.63;;;2.63;100.00
42125;BME280;27787;44.594;11.046;2023-01-23T10:19:23;101137.78;;;2.54;100.00
42125;BME280;27787;44.594;11.046;2023-01-23T10:22:31;101141.84;;;2.48;100.00
42125;BME280;27787;44.594;11.046;2023-01-23T10:25:21;101140.78;;;2.44;100.00
42125;BME280;27787;44.594;11.046;2023-01-23T10:28:33;101121.59;;;2.42;100.00
42125;BME280;27787;44.594;11.046;2023-01-23T10:31:40;101114.34;;;2.35;100.00
42125;BME280;27787;44.594;11.046;2023-01-23T10:34:39;101128.91;;;2.31;100.00
42125;BME280;27787;44.594;11.046;2023-01-23T10:37:55;101113.28;;;2.31;100.00
42125;BME280;27787;44.594;11.046;2023-01-23T10:40:46;101105.53;;;2.33;100.00
42125;BME280;27787;44.594;11.046;2023-01-23T10:43:51;101099.16;;;2.26;100.00
42125;BME280;27787;44.594;11.046;2023-01-23T10:46:59;101118.09;;;2.22;100.00
42125;BME280;27787;44.594;11.046;2023-01-23T10:49:45;101112.94;;;2.24;100.00
42125;BME280;27787;44.594;11.046;2023-01-23T10:58:23;101102.41;;;2.40;100.00
42125;BME280;27787;44.594;11.046;2023-01-23T11:01:33;101099.84;;;2.42;100.00
42125;BME280;27787;44.594;11.046;2023-01-23T11:04:22;101097.31;;;2.43;100.00
42125;BME280;27787;44.594;11.046;2023-01-23T11:07:15;101104.44;;;2.47;100.00
42125;BME280;27787;44.594;11.046;2023-01-23T11:12:52;101083.75;;;2.50;100.00
42125;BME280;27787;44.594;11.046;2023-01-23T11:15:40;101089.78;;;2.49;100.00
42125;BME280;27787;44.594;11.046;2023-01-23T11:18:33;101078.47;;;2.49;100.00
42125;BME280;27787;44.594;11.046;2023-01-23T11:21:20;101069.97;;;2.53;100.00
42125;BME280;27787;44.594;11.046;2023-01-23T11:24:18;101069.34;;;2.58;100.00
42125;BME280;27787;44.594;11.046;2023-01-23T11:30:09;101063.47;;;2.62;100.00
42125;BME280;27787;44.594;11.046;2023-01-23T11:33:13;101080.09;;;2.66;100.00
42125;BME280;27787;44.594;11.046;2023-01-23T11:36:21;101068.91;;;2.69;100.00
42125;BME280;27787;44.594;11.046;2023-01-23T11:39:33;101067.28;;;2.71;100.00
42125;BME280;27787;44.594;11.046;2023-01-23T11:42:22;101064.94;;;2.77;100.00
42125;BME280;27787;44.594;11.046;2023-01-23T11:45:36;101066.91;;;2.82;100.00
42125;BME280;27787;44.594;11.046;2023-01-23T11:48:52;101064.25;;;2.81;100.00
42125;BME280;27787;44.594;11.046;2023-01-23T11:51:55;101070.75;;;2.90;100.00
42125;BME280;27787;44.594;11.046;2023-01-23T12:01:02;101059.38;;;3.09;100.00
42125;BME280;27787;44.594;11.046;2023-01-23T12:06:53;101066.53;;;3.13;100.00
42125;BME280;27787;44.594;11.046;2023-01-23T12:10:02;101057.66;;;3.10;100.00
42125;BME280;27787;44.594;11.046;2023-01-23T12:13:09;101054.63;;;3.20;100.00
42125;BME280;27787;44.594;11.046;2023-01-23T12:19:52;101050.63;;;3.28;100.00
42125;BME280;27787;44.594;11.046;2023-01-23T12:23:27;101046.47;;;3.33;100.00
42125;BME280;27787;44.594;11.046;2023-01-23T12:26:00;101045.91;;;3.40;100.00
42125;BME280;27787;44.594;11.046;2023-01-23T12:32:03;101040.13;;;3.49;100.00
42125;BME280;27787;44.594;11.046;2023-01-23T12:41:11;101023.84;;;3.77;100.00
42125;BME280;27787;44.594;11.046;2023-01-23T12:44:17;101011.22;;;3.88;100.00
42125;BME280;27787;44.594;11.046;2023-01-23T12:47:14;100995.22;;;4.02;100.00
42125;BME280;27787;44.594;11.046;2023-01-23T12:50:13;101000.47;;;4.26;100.00
42125;BME280;27787;44.594;11.046;2023-01-23T12:53:15;100993.75;;;4.57;100.00
42125;BME280;27787;44.594;11.046;2023-01-23T12:59:03;100988.91;;;4.94;100.00
42125;BME280;27787;44.594;11.046;2023-01-23T13:02:00;100995.94;;;5.21;100.00
42125;BME280;27787;44.594;11.046;2023-01-23T13:04:54;100985.78;;;5.31;100.00
42125;BME280;27787;44.594;11.046;2023-01-23T13:10:45;100983.56;;;5.72;100.00
42125;BME280;27787;44.594;11.046;2023-01-23T13:13:56;100993.75;;;5.90;100.00
42125;BME280;27787;44.594;11.046;2023-01-23T13:16:46;100989.13;;;6.11;100.00
42125;BME280;27787;44.594;11.046;2023-01-23T13:19:32;100994.63;;;6.20;100.00
42125;BME280;27787;44.594;11.046;2023-01-23T13:22:42;101001.94;;;6.31;100.00
42125;BME280;27787;44.594;11.046;2023-01-23T13:25:26;100984.63;;;6.37;100.00
42125;BME280;27787;44.594;11.046;2023-01-23T13:31:51;100998.28;;;6.57;100.00
42125;BME280;27787;44.594;11.046;2023-01-23T13:34:55;100999.19;;;6.58;100.00
42125;BME280;27787;44.594;11.046;2023-01-23T13:40:24;101009.03;;;6.66;100.00
42125;BME280;27787;44.594;11.046;2023-01-23T13:46:53;101021.41;;;6.72;100.00
42125;BME280;27787;44.594;11.046;2023-01-23T13:52:38;101019.56;;;6.68;100.00
42125;BME280;27787;44.594;11.046;2023-01-23T13:55:43;101001.31;;;6.72;100.00
42125;BME280;27787;44.594;11.046;2023-01-23T13:58:50;101009.41;;;6.80;100.00
42125;BME280;27787;44.594;11.046;2023-01-23T14:01:41;100979.84;;;6.87;100.00
42125;BME280;27787;44.594;11.046;2023-01-23T14:05:04;100987.84;;;6.92;100.00
42125;BME280;27787;44.594;11.046;2023-01-23T14:08:05;101002.88;;;6.99;100.00
42125;BME280;27787;44.594;11.046;2023-01-23T14:10:50;100996.97;;;7.06;100.00
42125;BME280;27787;44.594;11.046;2023-01-23T14:13:35;100994.53;;;7.15;100.00
42125;BME280;27787;44.594;11.046;2023-01-23T14:16:19;101010.44;;;7.20;100.00
42125;BME280;27787;44.594;11.046;2023-01-23T14:19:29;101013.03;;;7.18;100.00
42125;BME280;27787;44.594;11.046;2023-01-23T14:22:14;101027.00;;;7.17;100.00
42125;BME280;27787;44.594;11.046;2023-01-23T14:24:58;101012.19;;;7.21;100.00
42125;BME280;27787;44.594;11.046;2023-01-23T14:27:43;101014.88;;;7.22;100.00
42125;BME280;27787;44.594;11.046;2023-01-23T14:30:28;101037.72;;;7.26;100.00
42125;BME280;27787;44.594;11.046;2023-01-23T14:33:16;101037.63;;;7.23;100.00
42125;BME280;27787;44.594;11.046;2023-01-23T14:36:00;101041.94;;;7.20;100.00
42125;BME280;27787;44.594;11.046;2023-01-23T14:38:46;101056.88;;;7.22;100.00
42125;BME280;27787;44.594;11.046;2023-01-23T14:41:38;101063.22;;;7.30;100.00
42125;BME280;27787;44.594;11.046;2023-01-23T14:44:26;101070.09;;;7.27;100.00
42125;BME280;27787;44.594;11.046;2023-01-23T14:47:33;101084.91;;;7.23;100.00
42125;BME280;27787;44.594;11.046;2023-01-23T14:50:23;101093.63;;;7.22;100.00
42125;BME280;27787;44.594;11.046;2023-01-23T14:53:13;101099.84;;;7.26;100.00
42125;BME280;27787;44.594;11.046;2023-01-23T14:55:59;101105.97;;;7.26;100.00
42125;BME280;27787;44.594;11.046;2023-01-23T14:58:45;101108.63;;;7.28;100.00
42125;BME280;27787;44.594;11.046;2023-01-23T15:01:30;101111.25;;;7.28;100.00
42125;BME280;27787;44.594;11.046;2023-01-23T15:04:20;101127.97;;;7.30;100.00
42125;BME280;27787;44.594;11.046;2023-01-23T15:07:05;101126.28;;;7.32;100.00
42125;BME280;27787;44.594;11.046;2023-01-23T15:09:57;101127.16;;;7.32;100.00
42125;BME280;27787;44.594;11.046;2023-01-23T15:12:58;101125.38;;;7.31;100.00
42125;BME280;27787;44.594;11.046;2023-01-23T15:15:51;101135.88;;;7.31;100.00
42125;BME280;27787;44.594;11.046;2023-01-23T15:18:36;101133.00;;;7.22;100.00
42125;BME280;27787;44.594;11.046;2023-01-23T15:21:47;101132.03;;;7.19;100.00
42125;BME280;27787;44.594;11.046;2023-01-23T15:24:31;101126.75;;;7.17;100.00
42125;BME280;27787;44.594;11.046;2023-01-23T15:27:33;101137.00;;;7.08;100.00
42125;BME280;27787;44.594;11.046;2023-01-23T15:30:41;101149.16;;;7.04;100.00
42125;BME280;27787;44.594;11.046;2023-01-23T15:33:30;101161.25;;;6.99;100.00
42125;BME280;27787;44.594;11.046;2023-01-23T15:36:33;101168.22;;;6.99;100.00
42125;BME280;27787;44.594;11.046;2023-01-23T15:44:54;101183.81;;;6.93;100.00
42125;BME280;27787;44.594;11.046;2023-01-23T15:47:43;101190.97;;;6.98;100.00
42125;BME280;27787;44.594;11.046;2023-01-23T15:50:28;101195.28;;;6.96;100.00
42125;BME280;27787;44.594;11.046;2023-01-23T15:53:13;101200.53;;;6.96;100.00
42125;BME280;27787;44.594;11.046;2023-01-23T15:55:58;101203.19;;;6.98;100.00
42125;BME280;27787;44.594;11.046;2023-01-23T15:58:42;101204.97;;;6.99;100.00
42125;BME280;27787;44.594;11.046;2023-01-23T16:01:26;101218.81;;;6.93;100.00
42125;BME280;27787;44.594;11.046;2023-01-23T16:04:10;101227.59;;;6.94;100.00
42125;BME280;27787;44.594;11.046;2023-01-23T16:06:56;101224.03;;;6.92;100.00
42125;BME280;27787;44.594;11.046;2023-01-23T16:09:40;101233.56;;;6.90;100.00
42125;BME280;27787;44.594;11.046;2023-01-23T16:12:29;101243.03;;;6.85;100.00
42125;BME280;27787;44.594;11.046;2023-01-23T16:15:19;101261.41;;;6.85;100.00
42125;BME280;27787;44.594;11.046;2023-01-23T16:18:04;101272.75;;;6.84;100.00
42125;BME280;27787;44.594;11.046;2023-01-23T16:20:49;101275.25;;;6.79;100.00
42125;BME280;27787;44.594;11.046;2023-01-23T16:23:33;101281.38;;;6.79;100.00
42125;BME280;27787;44.594;11.046;2023-01-23T16:26:23;101290.19;;;6.82;100.00
42125;BME280;27787;44.594;11.046;2023-01-23T16:32:08;101301.09;;;6.95;100.00
42125;BME280;27787;44.594;11.046;2023-01-23T16:34:52;101321.13;;;6.92;100.00
42125;BME280;27787;44.594;11.046;2023-01-23T16:37:38;101332.47;;;6.91;100.00
42125;BME280;27787;44.594;11.046;2023-01-23T16:40:28;101336.72;;;6.87;100.00
42125;BME280;27787;44.594;11.046;2023-01-23T16:43:13;101343.66;;;6.85;100.00
42125;BME280;27787;44.594;11.046;2023-01-23T16:45:57;101347.91;;;6.82;100.00
42125;BME280;27787;44.594;11.046;2023-01-23T16:48:41;101358.31;;;6.78;100.00
42125;BME280;27787;44.594;11.046;2023-01-23T16:51:25;101366.13;;;6.77;100.00
42125;BME280;27787;44.594;11.046;2023-01-23T16:54:14;101379.22;;;6.77;100.00
42125;BME280;27787;44.594;11.046;2023-01-23T16:57:00;101381.81;;;6.75;100.00
42125;BME280;27787;44.594;11.046;2023-01-23T16:59:45;101397.59;;;6.77;100.00
42125;BME280;27787;44.594;11.046;2023-01-23T17:02:30;101402.91;;;6.78;100.00
42125;BME280;27787;44.594;11.046;2023-01-23T17:05:16;101415.25;;;6.81;100.00
42125;BME280;27787;44.594;11.046;2023-01-23T17:08:15;101423.97;;;6.80;100.00
42125;BME280;27787;44.594;11.046;2023-01-23T17:11:01;101429.22;;;6.80;100.00
42125;BME280;27787;44.594;11.046;2023-01-23T17:13:50;101436.25;;;6.81;100.00
42125;BME280;27787;44.594;11.046;2023-01-23T17:16:35;101438.81;;;6.79;100.00
42125;BME280;27787;44.594;11.046;2023-01-23T17:19:27;101447.56;;;6.80;100.00
42125;BME280;27787;44.594;11.046;2023-01-23T17:22:21;101458.06;;;6.80;100.00
42125;BME280;27787;44.594;11.046;2023-01-23T17:25:18;101458.88;;;6.77;100.00
42125;BME280;27787;44.594;11.046;2023-01-23T17:28:02;101467.50;;;6.75;100.00
42125;BME280;27787;44.594;11.046;2023-01-23T17:30:49;101470.78;;;6.68;100.00
42125;BME280;27787;44.594;11.046;2023-01-23T17:33:34;101476.47;;;6.56;100.00
42125;BME280;27787;44.594;11.046;2023-01-23T17:36:18;101488.47;;;6.49;100.00
42125;BME280;27787;44.594;11.046;2023-01-23T17:39:03;101486.53;;;6.44;100.00
42125;BME280;27787;44.594;11.046;2023-01-23T17:41:47;101497.72;;;6.38;100.00